createdAt,value
2023-02-09T00:00:17.685Z,-3.46
2023-02-09T00:02:44.359Z,-3.50
2023-02-09T00:05:11.604Z,-3.58
2023-02-09T00:07:38.347Z,-3.57
2023-02-09T00:10:06.330Z,-3.54
2023-02-09T00:12:52.503Z,-3.56
2023-02-09T00:15:19.129Z,-3.64
2023-02-09T00:17:45.774Z,-3.74
2023-02-09T00:20:12.557Z,-3.83
2023-02-09T00:22:39.165Z,-3.90
2023-02-09T00:25:06.084Z,-3.82
2023-02-09T00:27:35.776Z,-3.90
2023-02-09T00:30:02.754Z,-3.78
2023-02-09T00:32:32.815Z,-3.82
2023-02-09T00:34:59.328Z,-3.83
2023-02-09T00:37:26.031Z,-3.83
2023-02-09T00:39:52.628Z,-3.77
2023-02-09T00:42:19.285Z,-3.67
2023-02-09T00:44:46.318Z,-3.75
2023-02-09T00:47:13.028Z,-3.70
2023-02-09T00:49:40.354Z,-3.63
2023-02-09T00:52:08.930Z,-3.63
2023-02-09T00:54:36.486Z,-3.78
2023-02-09T00:57:05.930Z,-3.87
2023-02-09T00:59:34.813Z,-3.88
2023-02-09T01:02:01.950Z,-3.99
2023-02-09T01:04:28.614Z,-4.05
2023-02-09T01:06:55.342Z,-4.07
2023-02-09T01:09:22.125Z,-4.17
2023-02-09T01:11:48.799Z,-4.20
2023-02-09T01:14:15.327Z,-4.14
2023-02-09T01:16:42.136Z,-4.33
2023-02-09T01:19:12.196Z,-4.53
2023-02-09T01:21:39.119Z,-4.78
2023-02-09T01:24:06.112Z,-4.99
2023-02-09T01:26:32.733Z,-5.09
2023-02-09T01:28:59.272Z,-5.11
2023-02-09T01:31:31.816Z,-5.16
2023-02-09T01:34:01.181Z,-5.14
2023-02-09T01:36:28.910Z,-5.17
2023-02-09T01:38:57.093Z,-5.29
2023-02-09T01:41:24.355Z,-5.38
2023-02-09T01:44:28.472Z,-5.26
2023-02-09T01:46:55.234Z,-5.37
2023-02-09T01:49:26.315Z,-5.43
2023-02-09T01:52:00.852Z,-5.36
2023-02-09T01:54:33.061Z,-5.28
2023-02-09T01:57:05.110Z,-5.31
2023-02-09T01:59:34.709Z,-5.41
2023-02-09T02:02:01.432Z,-5.53
2023-02-09T02:04:29.107Z,-5.48
2023-02-09T02:07:02.265Z,-5.45
2023-02-09T02:09:29.778Z,-5.23
2023-02-09T02:11:56.808Z,-5.25
2023-02-09T02:14:38.235Z,-5.24
2023-02-09T02:17:23.676Z,-5.19
2023-02-09T02:20:27.170Z,-5.12
2023-02-09T02:23:21.084Z,-5.15
2023-02-09T02:26:12.134Z,-5.33
2023-02-09T02:28:42.701Z,-5.38
2023-02-09T02:31:31.236Z,-5.50
2023-02-09T02:34:12.875Z,-5.68
2023-02-09T02:37:01.460Z,-5.80
2023-02-09T02:39:46.226Z,-5.82
2023-02-09T02:42:50.183Z,-5.86
2023-02-09T02:45:35.772Z,-5.91
2023-02-09T02:48:08.433Z,-5.87
2023-02-09T02:50:40.254Z,-5.78
2023-02-09T02:53:10.741Z,-5.79
2023-02-09T02:55:39.265Z,-5.73
2023-02-09T02:58:09.401Z,-5.75
2023-02-09T03:00:45.249Z,-5.83
2023-02-09T03:03:19.918Z,-5.88
2023-02-09T03:05:48.228Z,-5.83
2023-02-09T03:08:14.879Z,-5.91
2023-02-09T03:10:42.610Z,-5.98
2023-02-09T03:13:21.504Z,-6.09
2023-02-09T03:16:20.718Z,-6.24
2023-02-09T03:19:10.514Z,-6.36
2023-02-09T03:21:49.411Z,-6.43
2023-02-09T03:24:44.888Z,-6.31
2023-02-09T03:27:47.615Z,-6.32
2023-02-09T03:30:17.507Z,-6.27
2023-02-09T03:32:46.914Z,-6.15
2023-02-09T03:35:18.033Z,-6.13
2023-02-09T03:37:44.621Z,-6.02
2023-02-09T03:40:11.629Z,-6.00
2023-02-09T03:42:38.294Z,-5.91
2023-02-09T03:45:08.174Z,-5.97
2023-02-09T03:47:35.054Z,-5.58
2023-02-09T03:50:01.538Z,-5.22
2023-02-09T03:52:27.987Z,-4.88
2023-02-09T03:54:54.561Z,-4.66
2023-02-09T03:57:21.204Z,-4.51
2023-02-09T03:59:47.974Z,-4.42
2023-02-09T04:02:14.778Z,-4.25
2023-02-09T04:04:41.532Z,-4.13
2023-02-09T04:07:08.244Z,-4.05
2023-02-09T04:09:35.050Z,-4.00
2023-02-09T04:12:01.638Z,-3.94
2023-02-09T04:14:28.265Z,-3.89
2023-02-09T04:16:55.065Z,-3.88
2023-02-09T04:19:21.738Z,-3.81
2023-02-09T04:21:48.441Z,-3.93
2023-02-09T04:24:15.131Z,-3.90
2023-02-09T04:26:41.826Z,-3.85
2023-02-09T04:29:08.413Z,-3.84
2023-02-09T04:31:35.283Z,-3.75
2023-02-09T04:34:02.230Z,-3.72
2023-02-09T04:36:29.039Z,-3.71
2023-02-09T04:38:55.688Z,-3.70
2023-02-09T04:41:22.394Z,-3.60
2023-02-09T04:43:49.306Z,-3.63
2023-02-09T04:46:18.083Z,-3.71
2023-02-09T04:48:45.705Z,-3.64
2023-02-09T04:51:12.323Z,-3.75
2023-02-09T04:53:38.931Z,-3.62
2023-02-09T04:56:06.048Z,-3.63
2023-02-09T04:58:51.347Z,-3.69
2023-02-09T05:01:27.253Z,-3.67
2023-02-09T05:03:53.984Z,-3.75
2023-02-09T05:06:21.286Z,-3.73
2023-02-09T05:08:48.940Z,-3.89
2023-02-09T05:11:15.624Z,-3.88
2023-02-09T05:13:42.656Z,-3.79
2023-02-09T05:16:13.712Z,-3.76
2023-02-09T05:18:40.336Z,-3.65
2023-02-09T05:21:07.054Z,-3.76
2023-02-09T05:23:33.697Z,-3.81
2023-02-09T05:26:00.882Z,-3.72
2023-02-09T05:28:27.689Z,-3.85
2023-02-09T05:30:54.352Z,-3.90
2023-02-09T05:33:22.476Z,-4.03
2023-02-09T05:35:50.511Z,-4.14
2023-02-09T05:38:17.283Z,-4.28
2023-02-09T05:40:45.247Z,-4.16
2023-02-09T05:43:12.061Z,-4.17
2023-02-09T05:45:38.992Z,-4.13
2023-02-09T05:48:05.797Z,-3.96
2023-02-09T05:50:32.469Z,-3.82
2023-02-09T05:53:00.272Z,-3.77
2023-02-09T05:55:26.826Z,-3.71
2023-02-09T05:57:53.336Z,-3.68
2023-02-09T06:00:20.876Z,-3.70
2023-02-09T06:02:47.660Z,-3.88
2023-02-09T06:05:14.447Z,-3.89
2023-02-09T06:07:41.052Z,-4.03
2023-02-09T06:10:08.183Z,-4.08
2023-02-09T06:12:34.781Z,-4.07
2023-02-09T06:15:01.461Z,-4.18
2023-02-09T06:17:28.234Z,-4.24
2023-02-09T06:19:54.814Z,-4.30
2023-02-09T06:22:21.509Z,-4.32
2023-02-09T06:24:48.246Z,-4.40
2023-02-09T06:27:14.919Z,-4.39
2023-02-09T06:29:41.742Z,-4.48
2023-02-09T06:32:08.568Z,-4.57
2023-02-09T06:34:35.318Z,-4.48
2023-02-09T06:37:01.898Z,-4.49
2023-02-09T06:39:29.686Z,-4.44
2023-02-09T06:41:56.306Z,-4.45
2023-02-09T06:44:22.911Z,-4.43
2023-02-09T06:46:49.771Z,-4.35
2023-02-09T06:49:16.591Z,-4.36
2023-02-09T06:51:43.281Z,-4.31
2023-02-09T06:54:09.845Z,-4.17
2023-02-09T06:56:36.518Z,-3.98
2023-02-09T06:59:03.482Z,-3.89
2023-02-09T07:01:30.119Z,-3.72
2023-02-09T07:03:56.774Z,-3.63
2023-02-09T07:06:23.936Z,-3.58
2023-02-09T07:08:50.931Z,-3.52
2023-02-09T07:11:19.115Z,-3.50
2023-02-09T07:13:46.817Z,-3.46
2023-02-09T07:16:14.448Z,-3.49
2023-02-09T07:18:41.656Z,-3.46
2023-02-09T07:21:11.802Z,-3.35
2023-02-09T07:23:39.450Z,-3.26
2023-02-09T07:26:09.066Z,-3.23
2023-02-09T07:28:36.495Z,-3.23
2023-02-09T07:31:05.796Z,-3.22
2023-02-09T07:33:32.597Z,-3.16
2023-02-09T07:35:59.529Z,-3.02
2023-02-09T07:38:26.664Z,-2.98
2023-02-09T07:40:53.566Z,-2.92
2023-02-09T07:43:20.334Z,-2.93
2023-02-09T07:45:47.293Z,-2.88
2023-02-09T07:48:16.976Z,-2.72
2023-02-09T07:50:50.694Z,-2.60
2023-02-09T07:53:17.413Z,-2.48
2023-02-09T07:55:44.214Z,-2.43
2023-02-09T07:58:11.082Z,-2.35
2023-02-09T08:00:37.936Z,-2.30
2023-02-09T08:03:05.762Z,-2.20
2023-02-09T08:05:41.721Z,-2.07
2023-02-09T08:08:08.434Z,-2.03
2023-02-09T08:10:35.328Z,-1.95
2023-02-09T08:13:04.627Z,-1.92
2023-02-09T08:15:37.857Z,-1.72
2023-02-09T08:18:12.471Z,-1.55
2023-02-09T08:20:40.051Z,-1.27
2023-02-09T08:23:11.003Z,-1.08
2023-02-09T08:25:38.065Z,-0.87
2023-02-09T08:28:05.779Z,-0.68
2023-02-09T08:30:33.888Z,-0.47
2023-02-09T08:33:01.054Z,-0.28
2023-02-09T08:35:30.269Z,-0.12
2023-02-09T08:38:00.775Z,0.07
2023-02-09T08:40:27.432Z,0.09
2023-02-09T08:42:54.400Z,0.17
2023-02-09T08:45:21.204Z,0.30
2023-02-09T08:47:47.820Z,0.24
2023-02-09T08:50:14.617Z,0.47
2023-02-09T08:52:41.500Z,0.60
2023-02-09T08:55:08.646Z,0.90
2023-02-09T08:57:43.947Z,1.02
2023-02-09T09:00:12.188Z,1.04
2023-02-09T09:02:38.989Z,1.18
2023-02-09T09:05:05.965Z,1.08
2023-02-09T09:07:33.031Z,1.39
2023-02-09T09:09:59.616Z,1.46
2023-02-09T09:12:26.144Z,1.62
2023-02-09T09:14:52.825Z,1.99
2023-02-09T09:17:19.664Z,2.00
2023-02-09T09:19:46.703Z,2.32
2023-02-09T09:22:13.364Z,2.25
2023-02-09T09:24:43.134Z,2.25
2023-02-09T09:27:10.921Z,2.30
2023-02-09T09:29:40.173Z,2.41
2023-02-09T09:32:08.243Z,2.47
2023-02-09T09:34:34.955Z,2.56
2023-02-09T09:37:01.554Z,2.71
2023-02-09T09:39:28.352Z,3.05
2023-02-09T09:42:00.790Z,3.34
2023-02-09T09:44:42.177Z,3.47
2023-02-09T09:47:16.004Z,3.44
2023-02-09T09:49:43.264Z,3.67
2023-02-09T09:52:28.914Z,3.69
2023-02-09T09:54:55.649Z,3.98
2023-02-09T09:57:26.666Z,3.41
2023-02-09T09:59:54.802Z,3.32
2023-02-09T10:02:27.354Z,3.48
2023-02-09T10:04:59.499Z,3.52
2023-02-09T10:07:31.797Z,3.72
2023-02-09T10:10:07.885Z,3.78
2023-02-09T10:12:51.205Z,4.03
2023-02-09T10:15:28.473Z,4.24
2023-02-09T10:17:57.022Z,4.50
2023-02-09T10:20:46.598Z,4.74
2023-02-09T10:23:21.158Z,4.44
2023-02-09T10:26:07.231Z,4.50
2023-02-09T10:28:46.296Z,4.46
2023-02-09T10:31:31.917Z,4.54
2023-02-09T10:34:04.552Z,4.83
2023-02-09T10:36:35.668Z,5.08
2023-02-09T10:39:11.082Z,4.72
2023-02-09T10:41:40.638Z,5.08
2023-02-09T10:44:21.872Z,5.20
2023-02-09T10:46:48.868Z,5.35
2023-02-09T10:49:36.123Z,5.38
2023-02-09T10:52:14.205Z,5.39
2023-02-09T10:54:49.734Z,5.67
2023-02-09T10:57:26.090Z,5.72
2023-02-09T10:59:55.435Z,5.95
2023-02-09T11:02:36.306Z,5.88
2023-02-09T11:05:23.545Z,5.84
2023-02-09T11:07:57.850Z,5.62
2023-02-09T11:10:27.364Z,5.72
2023-02-09T11:12:54.022Z,5.78
2023-02-09T11:15:26.888Z,5.68
2023-02-09T11:18:06.713Z,5.63
2023-02-09T11:20:44.376Z,5.38
2023-02-09T11:23:33.323Z,5.17
2023-02-09T11:26:24.064Z,5.18
2023-02-09T11:29:08.878Z,5.12
2023-02-09T11:31:50.141Z,4.77
2023-02-09T11:34:42.473Z,4.47
2023-02-09T11:37:24.304Z,4.77
2023-02-09T11:40:06.240Z,4.86
2023-02-09T11:42:47.134Z,4.90
2023-02-09T11:45:24.554Z,4.76
2023-02-09T11:48:04.366Z,5.19
2023-02-09T11:50:42.220Z,5.27
2023-02-09T11:53:47.470Z,5.37
2023-02-09T11:56:22.688Z,5.58
2023-02-09T11:59:05.098Z,5.65
2023-02-09T12:01:56.616Z,5.72
2023-02-09T12:04:47.993Z,5.89
2023-02-09T12:07:23.807Z,5.94
2023-02-09T12:10:01.013Z,6.04
2023-02-09T12:12:34.461Z,5.88
2023-02-09T12:15:25.961Z,6.07
2023-02-09T12:18:03.972Z,5.83
2023-02-09T12:20:36.814Z,5.99
2023-02-09T12:23:32.169Z,6.30
2023-02-09T12:26:17.104Z,5.78
2023-02-09T12:28:46.923Z,5.78
2023-02-09T12:31:26.084Z,5.98
2023-02-09T12:33:58.867Z,5.80
2023-02-09T12:36:30.156Z,5.97
2023-02-09T12:39:05.249Z,6.04
2023-02-09T12:41:32.201Z,5.80
2023-02-09T12:44:21.953Z,5.78
2023-02-09T12:46:55.700Z,6.05
2023-02-09T12:49:28.197Z,6.19
2023-02-09T12:52:12.707Z,6.18
2023-02-09T12:54:51.274Z,6.16
2023-02-09T12:57:20.582Z,6.07
2023-02-09T12:59:50.080Z,6.21
2023-02-09T13:02:46.461Z,6.29
2023-02-09T13:05:22.818Z,6.60
2023-02-09T13:08:15.864Z,6.63
2023-02-09T13:11:18.012Z,6.54
2023-02-09T13:13:55.023Z,6.50
2023-02-09T13:16:24.440Z,6.42
2023-02-09T13:19:04.309Z,6.42
2023-02-09T13:21:52.696Z,6.31
2023-02-09T13:24:23.962Z,6.42
2023-02-09T13:26:54.912Z,6.53
2023-02-09T13:29:23.178Z,6.71
2023-02-09T13:32:08.571Z,6.43
2023-02-09T13:34:51.674Z,6.06
2023-02-09T13:37:27.723Z,6.17
2023-02-09T13:39:57.890Z,5.56
2023-02-09T13:42:26.801Z,5.73
2023-02-09T13:44:55.956Z,4.96
2023-02-09T13:47:23.462Z,4.84
2023-02-09T13:50:03.963Z,4.86
2023-02-09T13:52:38.606Z,4.54
2023-02-09T13:55:17.415Z,4.58
2023-02-09T13:57:49.957Z,4.82
2023-02-09T14:00:22.824Z,4.50
2023-02-09T14:02:53.969Z,4.02
2023-02-09T14:05:42.419Z,3.82
2023-02-09T14:08:12.638Z,3.56
2023-02-09T14:10:43.273Z,3.35
2023-02-09T14:13:28.189Z,3.23
2023-02-09T14:16:08.378Z,3.06
2023-02-09T14:18:46.009Z,3.13
2023-02-09T14:21:15.194Z,3.01
2023-02-09T14:23:45.569Z,2.93
2023-02-09T14:26:15.402Z,2.95
2023-02-09T14:28:45.555Z,2.74
2023-02-09T14:31:22.633Z,2.82
2023-02-09T14:33:51.084Z,2.69
2023-02-09T14:36:22.296Z,2.67
2023-02-09T14:38:50.686Z,2.50
2023-02-09T14:41:19.279Z,2.39
2023-02-09T14:43:58.394Z,2.26
2023-02-09T14:46:25.063Z,2.36
2023-02-09T14:48:56.080Z,2.38
2023-02-09T14:51:23.152Z,2.40
2023-02-09T14:53:50.291Z,2.37
2023-02-09T14:56:30.211Z,2.19
2023-02-09T14:58:56.969Z,2.13
2023-02-09T15:01:23.707Z,2.20
2023-02-09T15:03:50.389Z,2.19
2023-02-09T15:06:17.102Z,2.13
2023-02-09T15:08:43.847Z,2.16
2023-02-09T15:11:42.721Z,2.13
2023-02-09T15:14:11.417Z,2.10
2023-02-09T15:16:38.142Z,1.98
2023-02-09T15:19:12.481Z,1.94
2023-02-09T15:21:39.111Z,1.89
2023-02-09T15:24:05.963Z,1.80
2023-02-09T15:26:35.887Z,1.78
2023-02-09T15:29:08.180Z,1.76
2023-02-09T15:31:34.780Z,1.69
2023-02-09T15:34:01.633Z,1.66
2023-02-09T15:36:28.551Z,1.63
2023-02-09T15:38:55.828Z,1.62
2023-02-09T15:41:41.035Z,1.55
2023-02-09T15:44:44.406Z,1.35
2023-02-09T15:47:29.488Z,1.32
2023-02-09T15:49:56.237Z,1.34
2023-02-09T15:52:23.248Z,1.30
2023-02-09T15:54:52.268Z,1.19
2023-02-09T15:57:19.027Z,1.16
2023-02-09T15:59:46.597Z,0.98
2023-02-09T16:02:14.674Z,0.83
2023-02-09T16:04:41.377Z,0.71
2023-02-09T16:07:13.115Z,0.57
2023-02-09T16:09:42.967Z,0.49
2023-02-09T16:12:12.968Z,0.39
2023-02-09T16:14:40.113Z,0.43
2023-02-09T16:17:07.970Z,0.41
2023-02-09T16:19:34.949Z,0.32
2023-02-09T16:22:04.664Z,0.20
2023-02-09T16:24:37.359Z,0.07
2023-02-09T16:27:14.884Z,-0.03
2023-02-09T16:29:41.856Z,-0.12
2023-02-09T16:32:20.280Z,-0.22
2023-02-09T16:34:46.912Z,-0.32
2023-02-09T16:37:32.059Z,-0.32
2023-02-09T16:39:58.849Z,-0.37
2023-02-09T16:42:25.841Z,-0.51
2023-02-09T16:44:53.215Z,-0.60
2023-02-09T16:47:23.628Z,-0.68
2023-02-09T16:50:02.888Z,-0.74
2023-02-09T16:52:30.615Z,-0.78
2023-02-09T16:55:01.016Z,-0.70
2023-02-09T16:57:29.022Z,-0.69
2023-02-09T16:59:56.098Z,-0.56
2023-02-09T17:02:33.637Z,-0.67
2023-02-09T17:05:02.813Z,-0.66
2023-02-09T17:07:37.505Z,-0.75
2023-02-09T17:10:17.848Z,-0.81
2023-02-09T17:12:44.924Z,-1.06
2023-02-09T17:15:29.033Z,-1.28
2023-02-09T17:18:01.948Z,-1.30
2023-02-09T17:20:42.393Z,-1.26
2023-02-09T17:23:17.850Z,-1.20
2023-02-09T17:25:45.305Z,-1.16
2023-02-09T17:28:12.776Z,-1.17
2023-02-09T17:30:40.539Z,-1.13
2023-02-09T17:33:10.751Z,-1.17
2023-02-09T17:38:30.408Z,-1.25
2023-02-09T17:41:00.204Z,-1.37
2023-02-09T17:43:33.277Z,-1.46
2023-02-09T17:45:59.829Z,-1.59
2023-02-09T17:48:26.318Z,-1.70
2023-02-09T17:50:58.326Z,-1.70
2023-02-09T17:53:27.094Z,-1.68
2023-02-09T17:55:56.362Z,-1.56
2023-02-09T17:58:24.142Z,-1.63
2023-02-09T18:00:55.982Z,-1.63
2023-02-09T18:03:24.805Z,-1.71
2023-02-09T18:05:58.621Z,-1.62
2023-02-09T18:08:27.523Z,-1.69
2023-02-09T18:10:57.865Z,-1.71
2023-02-09T18:13:25.865Z,-1.73
2023-02-09T18:15:52.427Z,-1.77
2023-02-09T18:18:18.981Z,-1.80
2023-02-09T18:20:45.530Z,-1.89
2023-02-09T18:23:15.899Z,-1.97
2023-02-09T18:25:42.703Z,-1.96
2023-02-09T18:28:09.377Z,-1.81
2023-02-09T18:30:38.504Z,-1.85
2023-02-09T18:33:06.442Z,-1.92
2023-02-09T18:35:38.775Z,-1.91
2023-02-09T18:38:09.268Z,-1.94
2023-02-09T18:40:36.934Z,-2.01
2023-02-09T18:43:06.164Z,-2.01
2023-02-09T18:45:33.561Z,-2.02
2023-02-09T18:48:00.878Z,-1.99
2023-02-09T18:50:30.928Z,-1.93
2023-02-09T18:53:00.785Z,-2.00
2023-02-09T18:55:30.770Z,-2.03
2023-02-09T18:57:59.916Z,-1.99
2023-02-09T19:00:27.055Z,-1.97
2023-02-09T19:02:57.893Z,-1.98
2023-02-09T19:05:27.091Z,-2.08
2023-02-09T19:07:55.421Z,-2.08
2023-02-09T19:10:22.924Z,-2.11
2023-02-09T19:12:49.472Z,-2.15
2023-02-09T19:15:21.001Z,-2.17
2023-02-09T19:17:47.557Z,-2.15
2023-02-09T19:20:20.959Z,-2.12
2023-02-09T19:22:51.316Z,-2.14
2023-02-09T19:25:26.186Z,-2.15
2023-02-09T19:27:53.653Z,-2.18
2023-02-09T19:30:26.478Z,-2.18
2023-02-09T19:33:04.848Z,-2.25
2023-02-09T19:35:31.931Z,-2.20
2023-02-09T19:37:58.448Z,-2.27
2023-02-09T19:40:35.909Z,-2.16
2023-02-09T19:43:04.646Z,-2.03
2023-02-09T19:45:36.274Z,-2.07
2023-02-09T19:48:04.476Z,-2.08
2023-02-09T19:50:31.015Z,-2.01
2023-02-09T19:53:03.467Z,-2.00
2023-02-09T19:55:29.970Z,-1.98
2023-02-09T19:57:56.433Z,-2.04
2023-02-09T20:00:22.876Z,-1.99
2023-02-09T20:02:49.467Z,-1.87
2023-02-09T20:05:16.683Z,-1.83
2023-02-09T20:07:48.009Z,-1.75
2023-02-09T20:10:14.626Z,-1.74
2023-02-09T20:12:41.355Z,-1.84
2023-02-09T20:15:07.963Z,-1.84
2023-02-09T20:17:34.436Z,-1.91
2023-02-09T20:20:00.903Z,-1.99
2023-02-09T20:22:34.730Z,-2.05
2023-02-09T20:25:01.209Z,-1.93
2023-02-09T20:27:30.568Z,-1.82
2023-02-09T20:30:01.268Z,-1.86
2023-02-09T20:32:36.711Z,-1.77
2023-02-09T20:35:04.751Z,-1.57
2023-02-09T20:37:31.626Z,-1.68
2023-02-09T20:39:58.254Z,-1.69
2023-02-09T20:43:03.230Z,-1.73
2023-02-09T20:45:48.605Z,-1.78
2023-02-09T20:48:15.253Z,-1.69
2023-02-09T20:50:41.736Z,-1.63
2023-02-09T20:53:08.165Z,-1.57
2023-02-09T20:55:34.631Z,-1.59
2023-02-09T20:58:01.238Z,-1.75
2023-02-09T21:00:27.917Z,-1.79
2023-02-09T21:02:54.464Z,-1.55
2023-02-09T21:05:20.978Z,-1.54
2023-02-09T21:07:52.734Z,-1.47
2023-02-09T21:10:21.142Z,-1.33
2023-02-09T21:12:47.935Z,-1.26
2023-02-09T21:15:14.844Z,-1.30
2023-02-09T21:17:47.500Z,-1.22
2023-02-09T21:20:19.619Z,-1.27
2023-02-09T21:22:46.156Z,-1.33
2023-02-09T21:25:13.826Z,-1.27
2023-02-09T21:27:40.356Z,-1.24
2023-02-09T21:30:07.331Z,-1.31
2023-02-09T21:32:39.533Z,-1.31
2023-02-09T21:35:10.189Z,-1.24
2023-02-09T21:37:42.879Z,-1.13
2023-02-09T21:40:11.307Z,-1.02
2023-02-09T21:42:42.941Z,-1.07
2023-02-09T21:45:10.036Z,-0.90
2023-02-09T21:47:38.726Z,-1.00
2023-02-09T21:50:08.140Z,-1.04
2023-02-09T21:52:35.158Z,-0.99
2023-02-09T21:55:01.879Z,-0.83
2023-02-09T21:57:28.424Z,-0.96
2023-02-09T21:59:55.321Z,-1.03
2023-02-09T22:02:21.773Z,-0.88
2023-02-09T22:04:50.206Z,-0.96
2023-02-09T22:07:16.782Z,-0.94
2023-02-09T22:09:43.247Z,-0.98
2023-02-09T22:12:09.988Z,-0.99
2023-02-09T22:14:38.763Z,-0.99
2023-02-09T22:17:05.293Z,-1.12
2023-02-09T22:19:31.803Z,-0.95
2023-02-09T22:21:58.276Z,-0.87
2023-02-09T22:24:25.296Z,-0.91
2023-02-09T22:26:52.103Z,-0.98
2023-02-09T22:29:18.753Z,-1.08
2023-02-09T22:31:45.335Z,-1.03
2023-02-09T22:34:12.125Z,-0.89
2023-02-09T22:36:39.793Z,-1.05
2023-02-09T22:39:07.422Z,-1.09
2023-02-09T22:41:34.123Z,-1.07
2023-02-09T22:44:03.405Z,-0.94
2023-02-09T22:46:38.429Z,-0.87
2023-02-09T22:49:08.144Z,-0.98
2023-02-09T22:51:39.799Z,-1.14
2023-02-09T22:54:06.620Z,-1.01
2023-02-09T22:56:33.509Z,-1.03
2023-02-09T22:59:08.191Z,-0.96
2023-02-09T23:01:34.797Z,-1.08
2023-02-09T23:04:01.518Z,-1.08
2023-02-09T23:06:30.024Z,-0.99
2023-02-09T23:09:00.664Z,-1.13
2023-02-09T23:11:30.666Z,-1.15
2023-02-09T23:14:10.035Z,-1.30
2023-02-09T23:16:41.182Z,-1.36
2023-02-09T23:19:11.113Z,-1.44
2023-02-09T23:21:39.916Z,-1.37
2023-02-09T23:24:07.202Z,-1.41
2023-02-09T23:26:34.405Z,-1.44
2023-02-09T23:29:03.148Z,-1.49
2023-02-09T23:31:29.715Z,-1.35
2023-02-09T23:33:56.341Z,-1.36
2023-02-09T23:36:28.392Z,-1.25
2023-02-09T23:38:57.588Z,-1.30
2023-02-09T23:41:25.012Z,-1.23
2023-02-09T23:43:52.603Z,-1.25
2023-02-09T23:46:21.993Z,-1.19
2023-02-09T23:48:49.274Z,-1.37
2023-02-09T23:51:24.359Z,-1.38
2023-02-09T23:53:50.809Z,-1.31
2023-02-09T23:56:18.100Z,-1.20
2023-02-09T23:58:47.275Z,-1.17
